sensor_id;sensor_type;location;lat;lon;timestamp;temperature;humidity
3208;DHT22;1616;52.394;9.756;2023-07-08T00:00:52;21.10;1.00
3208;DHT22;1616;52.394;9.756;2023-07-08T00:03:19;21.00;1.00
3208;DHT22;1616;52.394;9.756;2023-07-08T00:05:46;21.00;1.00
3208;DHT22;1616;52.394;9.756;2023-07-08T00:08:17;21.00;1.00
3208;DHT22;1616;52.394;9.756;2023-07-08T00:10:44;20.90;1.00
3208;DHT22;1616;52.394;9.756;2023-07-08T00:13:10;20.80;1.00
3208;DHT22;1616;52.394;9.756;2023-07-08T00:15:36;20.80;1.00
3208;DHT22;1616;52.394;9.756;2023-07-08T00:18:13;20.70;1.00
3208;DHT22;1616;52.394;9.756;2023-07-08T00:20:44;20.70;1.00
3208;DHT22;1616;52.394;9.756;2023-07-08T00:23:10;20.70;1.00
3208;DHT22;1616;52.394;9.756;2023-07-08T00:25:36;20.70;1.00
3208;DHT22;1616;52.394;9.756;2023-07-08T00:28:14;20.70;1.00
3208;DHT22;1616;52.394;9.756;2023-07-08T00:30:40;20.70;1.00
3208;DHT22;1616;52.394;9.756;2023-07-08T00:33:06;20.60;1.00
3208;DHT22;1616;52.394;9.756;2023-07-08T00:35:39;20.50;1.00
3208;DHT22;1616;52.394;9.756;2023-07-08T00:38:20;20.50;1.00
3208;DHT22;1616;52.394;9.756;2023-07-08T00:40:58;20.40;1.00
3208;DHT22;1616;52.394;9.756;2023-07-08T00:43:35;20.40;1.00
3208;DHT22;1616;52.394;9.756;2023-07-08T00:51:32;20.40;1.00
3208;DHT22;1616;52.394;9.756;2023-07-08T00:53:57;20.30;1.00
3208;DHT22;1616;52.394;9.756;2023-07-08T00:56:32;20.30;1.00
3208;DHT22;1616;52.394;9.756;2023-07-08T00:59:07;20.20;1.00
3208;DHT22;1616;52.394;9.756;2023-07-08T01:01:39;20.30;1.00
3208;DHT22;1616;52.394;9.756;2023-07-08T01:04:20;20.30;1.00
3208;DHT22;1616;52.394;9.756;2023-07-08T01:06:52;20.30;1.00
3208;DHT22;1616;52.394;9.756;2023-07-08T01:09:24;20.30;1.00
3208;DHT22;1616;52.394;9.756;2023-07-08T01:11:51;20.30;1.00
3208;DHT22;1616;52.394;9.756;2023-07-08T01:14:18;20.30;1.00
3208;DHT22;1616;52.394;9.756;2023-07-08T01:16:44;20.30;1.00
3208;DHT22;1616;52.394;9.756;2023-07-08T01:19:15;20.30;1.00
3208;DHT22;1616;52.394;9.756;2023-07-08T01:22:06;20.20;1.00
3208;DHT22;1616;52.394;9.756;2023-07-08T01:24:35;20.20;1.00
3208;DHT22;1616;52.394;9.756;2023-07-08T01:27:03;20.20;1.00
3208;DHT22;1616;52.394;9.756;2023-07-08T01:29:29;20.10;1.00
3208;DHT22;1616;52.394;9.756;2023-07-08T01:31:56;20.00;1.00
3208;DHT22;1616;52.394;9.756;2023-07-08T01:34:22;20.00;1.00
3208;DHT22;1616;52.394;9.756;2023-07-08T01:36:51;19.90;1.00
3208;DHT22;1616;52.394;9.756;2023-07-08T01:39:20;19.80;1.00
3208;DHT22;1616;52.394;9.756;2023-07-08T01:41:47;19.60;1.00
3208;DHT22;1616;52.394;9.756;2023-07-08T01:46:46;19.50;1.00
3208;DHT22;1616;52.394;9.756;2023-07-08T01:49:12;19.40;1.00
3208;DHT22;1616;52.394;9.756;2023-07-08T01:51:37;19.20;1.00
3208;DHT22;1616;52.394;9.756;2023-07-08T01:54:03;19.20;1.00
3208;DHT22;1616;52.394;9.756;2023-07-08T01:56:28;19.10;1.00
3208;DHT22;1616;52.394;9.756;2023-07-08T01:58:54;19.00;1.00
3208;DHT22;1616;52.394;9.756;2023-07-08T02:01:19;19.10;1.00
3208;DHT22;1616;52.394;9.756;2023-07-08T02:03:45;19.00;1.00
3208;DHT22;1616;52.394;9.756;2023-07-08T02:06:11;19.10;1.00
3208;DHT22;1616;52.394;9.756;2023-07-08T02:08:37;19.10;1.00
3208;DHT22;1616;52.394;9.756;2023-07-08T02:11:03;19.10;1.00
3208;DHT22;1616;52.394;9.756;2023-07-08T02:13:28;19.10;1.00
3208;DHT22;1616;52.394;9.756;2023-07-08T02:15:54;19.20;1.00
3208;DHT22;1616;52.394;9.756;2023-07-08T02:18:19;19.20;1.00
3208;DHT22;1616;52.394;9.756;2023-07-08T02:20:45;19.20;1.00
3208;DHT22;1616;52.394;9.756;2023-07-08T02:23:11;19.30;1.00
3208;DHT22;1616;52.394;9.756;2023-07-08T02:25:37;19.10;1.00
3208;DHT22;1616;52.394;9.756;2023-07-08T02:28:03;19.20;1.00
3208;DHT22;1616;52.394;9.756;2023-07-08T02:30:29;19.10;1.00
3208;DHT22;1616;52.394;9.756;2023-07-08T02:32:54;19.00;1.00
3208;DHT22;1616;52.394;9.756;2023-07-08T02:35:28;19.00;1.00
3208;DHT22;1616;52.394;9.756;2023-07-08T02:37:55;18.90;1.00
3208;DHT22;1616;52.394;9.756;2023-07-08T02:40:21;19.00;1.00
3208;DHT22;1616;52.394;9.756;2023-07-08T02:42:47;18.90;1.00
3208;DHT22;1616;52.394;9.756;2023-07-08T02:45:13;18.80;1.00
3208;DHT22;1616;52.394;9.756;2023-07-08T02:47:39;18.80;1.00
3208;DHT22;1616;52.394;9.756;2023-07-08T02:50:05;18.70;1.00
3208;DHT22;1616;52.394;9.756;2023-07-08T02:52:31;18.60;1.00
3208;DHT22;1616;52.394;9.756;2023-07-08T02:54:56;18.60;1.00
3208;DHT22;1616;52.394;9.756;2023-07-08T02:57:22;18.50;1.00
3208;DHT22;1616;52.394;9.756;2023-07-08T02:59:47;18.50;1.00
3208;DHT22;1616;52.394;9.756;2023-07-08T03:02:12;18.60;1.00
3208;DHT22;1616;52.394;9.756;2023-07-08T03:04:38;18.50;1.00
3208;DHT22;1616;52.394;9.756;2023-07-08T03:07:04;18.50;1.00
3208;DHT22;1616;52.394;9.756;2023-07-08T03:09:29;18.50;1.00
3208;DHT22;1616;52.394;9.756;2023-07-08T03:11:57;18.50;1.00
3208;DHT22;1616;52.394;9.756;2023-07-08T03:14:23;18.50;1.00
3208;DHT22;1616;52.394;9.756;2023-07-08T03:16:49;18.50;1.00
3208;DHT22;1616;52.394;9.756;2023-07-08T03:19:14;18.60;1.00
3208;DHT22;1616;52.394;9.756;2023-07-08T03:21:40;18.50;1.00
3208;DHT22;1616;52.394;9.756;2023-07-08T03:24:09;18.50;1.00
3208;DHT22;1616;52.394;9.756;2023-07-08T03:26:36;18.50;1.00
3208;DHT22;1616;52.394;9.756;2023-07-08T03:29:02;18.50;1.00
3208;DHT22;1616;52.394;9.756;2023-07-08T03:31:28;18.50;1.00
3208;DHT22;1616;52.394;9.756;2023-07-08T03:33:53;18.50;1.00
3208;DHT22;1616;52.394;9.756;2023-07-08T03:36:19;18.60;1.00
3208;DHT22;1616;52.394;9.756;2023-07-08T03:38:57;18.80;1.00
3208;DHT22;1616;52.394;9.756;2023-07-08T03:41:23;19.00;1.00
3208;DHT22;1616;52.394;9.756;2023-07-08T03:43:49;19.20;1.00
3208;DHT22;1616;52.394;9.756;2023-07-08T03:46:19;19.30;1.00
3208;DHT22;1616;52.394;9.756;2023-07-08T03:48:46;19.50;1.00
3208;DHT22;1616;52.394;9.756;2023-07-08T03:51:33;19.90;1.00
3208;DHT22;1616;52.394;9.756;2023-07-08T03:53:59;20.30;1.00
3208;DHT22;1616;52.394;9.756;2023-07-08T03:56:25;20.70;1.00
3208;DHT22;1616;52.394;9.756;2023-07-08T03:58:50;21.10;1.00
3208;DHT22;1616;52.394;9.756;2023-07-08T04:01:18;21.60;1.00
3208;DHT22;1616;52.394;9.756;2023-07-08T04:03:46;22.00;1.00
3208;DHT22;1616;52.394;9.756;2023-07-08T04:06:12;22.40;1.00
3208;DHT22;1616;52.394;9.756;2023-07-08T04:08:38;22.70;1.00
3208;DHT22;1616;52.394;9.756;2023-07-08T04:11:03;23.10;1.00
3208;DHT22;1616;52.394;9.756;2023-07-08T04:13:29;23.50;1.00
3208;DHT22;1616;52.394;9.756;2023-07-08T04:15:57;23.90;1.00
3208;DHT22;1616;52.394;9.756;2023-07-08T04:18:23;24.10;1.00
3208;DHT22;1616;52.394;9.756;2023-07-08T04:20:48;24.50;1.00
3208;DHT22;1616;52.394;9.756;2023-07-08T04:23:18;24.80;1.00
3208;DHT22;1616;52.394;9.756;2023-07-08T04:25:44;25.20;1.00
3208;DHT22;1616;52.394;9.756;2023-07-08T04:28:09;25.40;1.00
3208;DHT22;1616;52.394;9.756;2023-07-08T04:30:35;25.60;1.00
3208;DHT22;1616;52.394;9.756;2023-07-08T04:33:06;25.90;1.00
3208;DHT22;1616;52.394;9.756;2023-07-08T04:35:33;26.20;1.00
3208;DHT22;1616;52.394;9.756;2023-07-08T04:38:00;26.40;1.00
3208;DHT22;1616;52.394;9.756;2023-07-08T04:40:26;26.40;1.00
3208;DHT22;1616;52.394;9.756;2023-07-08T04:42:51;26.70;1.00
3208;DHT22;1616;52.394;9.756;2023-07-08T04:45:18;26.90;1.00
3208;DHT22;1616;52.394;9.756;2023-07-08T04:47:44;27.20;1.00
3208;DHT22;1616;52.394;9.756;2023-07-08T04:50:12;27.40;1.00
3208;DHT22;1616;52.394;9.756;2023-07-08T04:52:38;27.60;1.00
3208;DHT22;1616;52.394;9.756;2023-07-08T04:55:03;27.80;1.00
3208;DHT22;1616;52.394;9.756;2023-07-08T04:57:29;28.20;1.00
3208;DHT22;1616;52.394;9.756;2023-07-08T04:59:54;28.40;1.00
3208;DHT22;1616;52.394;9.756;2023-07-08T05:02:20;28.70;1.00
3208;DHT22;1616;52.394;9.756;2023-07-08T05:04:45;29.00;1.00
3208;DHT22;1616;52.394;9.756;2023-07-08T05:07:11;29.30;1.00
3208;DHT22;1616;52.394;9.756;2023-07-08T05:09:37;29.50;1.00
3208;DHT22;1616;52.394;9.756;2023-07-08T05:12:02;29.70;1.00
3208;DHT22;1616;52.394;9.756;2023-07-08T05:14:28;30.00;1.00
3208;DHT22;1616;52.394;9.756;2023-07-08T05:16:53;30.10;1.00
3208;DHT22;1616;52.394;9.756;2023-07-08T05:19:19;30.30;1.00
3208;DHT22;1616;52.394;9.756;2023-07-08T05:21:47;30.50;1.00
3208;DHT22;1616;52.394;9.756;2023-07-08T05:24:13;30.70;1.00
3208;DHT22;1616;52.394;9.756;2023-07-08T05:26:39;30.80;1.00
3208;DHT22;1616;52.394;9.756;2023-07-08T05:29:04;30.90;1.00
3208;DHT22;1616;52.394;9.756;2023-07-08T05:31:30;31.10;1.00
3208;DHT22;1616;52.394;9.756;2023-07-08T05:33:56;31.20;1.00
3208;DHT22;1616;52.394;9.756;2023-07-08T05:36:21;31.30;1.00
3208;DHT22;1616;52.394;9.756;2023-07-08T05:38:47;31.60;1.00
3208;DHT22;1616;52.394;9.756;2023-07-08T05:41:12;31.70;1.00
3208;DHT22;1616;52.394;9.756;2023-07-08T05:43:37;31.90;1.00
3208;DHT22;1616;52.394;9.756;2023-07-08T05:46:03;31.90;1.00
3208;DHT22;1616;52.394;9.756;2023-07-08T05:48:29;32.00;1.00
3208;DHT22;1616;52.394;9.756;2023-07-08T05:50:55;32.10;1.00
3208;DHT22;1616;52.394;9.756;2023-07-08T05:53:20;32.20;1.00
3208;DHT22;1616;52.394;9.756;2023-07-08T05:55:48;32.20;1.00
3208;DHT22;1616;52.394;9.756;2023-07-08T05:58:13;32.20;1.00
3208;DHT22;1616;52.394;9.756;2023-07-08T06:00:43;32.20;1.00
3208;DHT22;1616;52.394;9.756;2023-07-08T06:03:09;32.40;1.00
3208;DHT22;1616;52.394;9.756;2023-07-08T06:05:34;32.50;1.00
3208;DHT22;1616;52.394;9.756;2023-07-08T06:08:01;32.70;1.00
3208;DHT22;1616;52.394;9.756;2023-07-08T06:10:26;32.90;1.00
3208;DHT22;1616;52.394;9.756;2023-07-08T06:12:52;33.10;1.00
3208;DHT22;1616;52.394;9.756;2023-07-08T06:15:17;33.30;1.00
3208;DHT22;1616;52.394;9.756;2023-07-08T06:17:43;33.50;1.00
3208;DHT22;1616;52.394;9.756;2023-07-08T06:20:08;33.60;1.00
3208;DHT22;1616;52.394;9.756;2023-07-08T06:22:34;33.70;1.00
3208;DHT22;1616;52.394;9.756;2023-07-08T06:24:59;33.80;1.00
3208;DHT22;1616;52.394;9.756;2023-07-08T06:27:25;33.90;1.00
3208;DHT22;1616;52.394;9.756;2023-07-08T06:29:50;33.90;1.00
3208;DHT22;1616;52.394;9.756;2023-07-08T06:32:16;34.00;1.00
3208;DHT22;1616;52.394;9.756;2023-07-08T06:34:42;34.10;1.00
3208;DHT22;1616;52.394;9.756;2023-07-08T06:37:07;34.20;1.00
3208;DHT22;1616;52.394;9.756;2023-07-08T06:39:33;34.30;1.00
3208;DHT22;1616;52.394;9.756;2023-07-08T06:41:58;34.40;1.00
3208;DHT22;1616;52.394;9.756;2023-07-08T06:44:24;34.50;1.00
3208;DHT22;1616;52.394;9.756;2023-07-08T06:46:51;34.50;1.00
3208;DHT22;1616;52.394;9.756;2023-07-08T06:49:16;34.60;1.00
3208;DHT22;1616;52.394;9.756;2023-07-08T06:51:42;34.60;1.00
3208;DHT22;1616;52.394;9.756;2023-07-08T06:54:10;34.60;1.00
3208;DHT22;1616;52.394;9.756;2023-07-08T06:56:40;34.60;1.00
3208;DHT22;1616;52.394;9.756;2023-07-08T06:59:09;34.90;1.00
3208;DHT22;1616;52.394;9.756;2023-07-08T07:01:34;35.10;1.00
3208;DHT22;1616;52.394;9.756;2023-07-08T07:04:02;35.20;1.00
3208;DHT22;1616;52.394;9.756;2023-07-08T07:06:28;35.40;1.00
3208;DHT22;1616;52.394;9.756;2023-07-08T07:08:54;35.50;1.00
3208;DHT22;1616;52.394;9.756;2023-07-08T07:11:19;35.60;1.00
3208;DHT22;1616;52.394;9.756;2023-07-08T07:13:45;35.80;1.00
3208;DHT22;1616;52.394;9.756;2023-07-08T07:16:11;35.90;1.00
3208;DHT22;1616;52.394;9.756;2023-07-08T07:18:36;36.00;1.00
3208;DHT22;1616;52.394;9.756;2023-07-08T07:21:02;36.10;1.00
3208;DHT22;1616;52.394;9.756;2023-07-08T07:23:28;36.40;1.00
3208;DHT22;1616;52.394;9.756;2023-07-08T07:25:53;36.60;1.00
3208;DHT22;1616;52.394;9.756;2023-07-08T07:28:19;36.80;1.00
3208;DHT22;1616;52.394;9.756;2023-07-08T07:30:45;37.10;1.00
3208;DHT22;1616;52.394;9.756;2023-07-08T07:33:11;37.30;1.00
3208;DHT22;1616;52.394;9.756;2023-07-08T07:35:44;37.40;1.00
3208;DHT22;1616;52.394;9.756;2023-07-08T07:38:09;37.40;1.00
3208;DHT22;1616;52.394;9.756;2023-07-08T07:40:35;37.40;1.00
3208;DHT22;1616;52.394;9.756;2023-07-08T07:43:00;37.50;1.00
3208;DHT22;1616;52.394;9.756;2023-07-08T07:45:26;37.50;1.00
3208;DHT22;1616;52.394;9.756;2023-07-08T07:47:52;37.50;1.00
3208;DHT22;1616;52.394;9.756;2023-07-08T07:50:17;37.10;1.00
3208;DHT22;1616;52.394;9.756;2023-07-08T07:52:43;36.70;1.00
3208;DHT22;1616;52.394;9.756;2023-07-08T07:55:09;36.30;1.00
3208;DHT22;1616;52.394;9.756;2023-07-08T07:57:34;36.10;1.00
3208;DHT22;1616;52.394;9.756;2023-07-08T07:59:59;36.00;1.00
3208;DHT22;1616;52.394;9.756;2023-07-08T08:02:25;36.10;1.00
3208;DHT22;1616;52.394;9.756;2023-07-08T08:04:50;36.20;1.00
3208;DHT22;1616;52.394;9.756;2023-07-08T08:07:16;36.50;1.00
3208;DHT22;1616;52.394;9.756;2023-07-08T08:09:41;36.60;1.00
3208;DHT22;1616;52.394;9.756;2023-07-08T08:12:09;36.90;1.00
3208;DHT22;1616;52.394;9.756;2023-07-08T08:14:35;36.90;1.00
3208;DHT22;1616;52.394;9.756;2023-07-08T08:17:00;37.00;1.00
3208;DHT22;1616;52.394;9.756;2023-07-08T08:19:27;37.10;1.00
3208;DHT22;1616;52.394;9.756;2023-07-08T08:21:53;37.20;1.00
3208;DHT22;1616;52.394;9.756;2023-07-08T08:24:18;37.40;1.00
3208;DHT22;1616;52.394;9.756;2023-07-08T08:26:43;37.50;1.00
3208;DHT22;1616;52.394;9.756;2023-07-08T08:29:09;37.60;1.00
3208;DHT22;1616;52.394;9.756;2023-07-08T08:31:34;37.80;1.00
3208;DHT22;1616;52.394;9.756;2023-07-08T08:34:00;37.90;1.00
3208;DHT22;1616;52.394;9.756;2023-07-08T08:36:25;37.90;1.00
3208;DHT22;1616;52.394;9.756;2023-07-08T08:38:51;38.00;1.00
3208;DHT22;1616;52.394;9.756;2023-07-08T08:41:19;38.00;1.00
3208;DHT22;1616;52.394;9.756;2023-07-08T08:43:47;38.10;1.00
3208;DHT22;1616;52.394;9.756;2023-07-08T08:46:29;38.20;1.00
3208;DHT22;1616;52.394;9.756;2023-07-08T08:49:02;38.20;1.00
3208;DHT22;1616;52.394;9.756;2023-07-08T08:51:31;38.20;1.00
3208;DHT22;1616;52.394;9.756;2023-07-08T08:53:58;38.30;1.00
3208;DHT22;1616;52.394;9.756;2023-07-08T08:56:29;38.40;1.00
3208;DHT22;1616;52.394;9.756;2023-07-08T08:59:09;38.60;1.00
3208;DHT22;1616;52.394;9.756;2023-07-08T09:01:38;38.80;1.00
3208;DHT22;1616;52.394;9.756;2023-07-08T09:04:28;39.00;1.00
3208;DHT22;1616;52.394;9.756;2023-07-08T09:07:04;39.10;1.00
3208;DHT22;1616;52.394;9.756;2023-07-08T09:09:38;39.20;1.00
3208;DHT22;1616;52.394;9.756;2023-07-08T09:12:10;39.20;1.00
3208;DHT22;1616;52.394;9.756;2023-07-08T09:14:37;39.20;1.00
3208;DHT22;1616;52.394;9.756;2023-07-08T09:17:29;39.30;1.00
3208;DHT22;1616;52.394;9.756;2023-07-08T09:20:23;39.50;1.00
3208;DHT22;1616;52.394;9.756;2023-07-08T09:25:34;39.20;1.00
3208;DHT22;1616;52.394;9.756;2023-07-08T09:28:01;39.00;1.00
3208;DHT22;1616;52.394;9.756;2023-07-08T09:30:26;38.90;1.00
3208;DHT22;1616;52.394;9.756;2023-07-08T09:32:54;38.80;1.00
3208;DHT22;1616;52.394;9.756;2023-07-08T09:35:27;38.90;1.00
3208;DHT22;1616;52.394;9.756;2023-07-08T09:37:53;38.90;1.00
3208;DHT22;1616;52.394;9.756;2023-07-08T09:40:23;39.00;1.00
3208;DHT22;1616;52.394;9.756;2023-07-08T09:45:42;39.10;1.00
3208;DHT22;1616;52.394;9.756;2023-07-08T09:48:24;39.20;1.00
3208;DHT22;1616;52.394;9.756;2023-07-08T09:50:53;39.40;1.00
3208;DHT22;1616;52.394;9.756;2023-07-08T09:53:19;39.50;1.00
3208;DHT22;1616;52.394;9.756;2023-07-08T09:55:45;39.60;1.00
3208;DHT22;1616;52.394;9.756;2023-07-08T09:58:15;39.80;1.00
3208;DHT22;1616;52.394;9.756;2023-07-08T10:00:43;40.00;1.00
3208;DHT22;1616;52.394;9.756;2023-07-08T10:03:17;40.30;1.00
3208;DHT22;1616;52.394;9.756;2023-07-08T10:05:46;40.40;1.00
3208;DHT22;1616;52.394;9.756;2023-07-08T10:08:18;40.30;1.00
3208;DHT22;1616;52.394;9.756;2023-07-08T10:10:46;40.40;1.00
3208;DHT22;1616;52.394;9.756;2023-07-08T10:13:34;40.50;1.00
3208;DHT22;1616;52.394;9.756;2023-07-08T10:16:14;40.40;1.00
3208;DHT22;1616;52.394;9.756;2023-07-08T10:18:40;40.50;1.00
3208;DHT22;1616;52.394;9.756;2023-07-08T10:21:29;40.50;1.00
3208;DHT22;1616;52.394;9.756;2023-07-08T10:24:22;40.60;1.00
3208;DHT22;1616;52.394;9.756;2023-07-08T10:27:08;40.70;1.00
3208;DHT22;1616;52.394;9.756;2023-07-08T10:30:27;40.80;1.00
3208;DHT22;1616;52.394;9.756;2023-07-08T10:32:53;40.70;1.00
3208;DHT22;1616;52.394;9.756;2023-07-08T10:35:27;40.70;1.00
3208;DHT22;1616;52.394;9.756;2023-07-08T10:40:29;40.50;1.00
3208;DHT22;1616;52.394;9.756;2023-07-08T10:46:22;40.30;1.00
3208;DHT22;1616;52.394;9.756;2023-07-08T10:48:56;40.20;1.00
3208;DHT22;1616;52.394;9.756;2023-07-08T10:51:28;40.10;1.00
3208;DHT22;1616;52.394;9.756;2023-07-08T10:54:10;39.90;1.00
3208;DHT22;1616;52.394;9.756;2023-07-08T10:56:45;39.70;1.00
3208;DHT22;1616;52.394;9.756;2023-07-08T11:04:56;40.30;1.00
3208;DHT22;1616;52.394;9.756;2023-07-08T11:09:58;40.70;1.00
3208;DHT22;1616;52.394;9.756;2023-07-08T11:12:33;40.60;1.00
3208;DHT22;1616;52.394;9.756;2023-07-08T11:15:13;40.60;1.00
3208;DHT22;1616;52.394;9.756;2023-07-08T11:17:56;40.50;1.00
3208;DHT22;1616;52.394;9.756;2023-07-08T11:20:38;40.50;1.00
3208;DHT22;1616;52.394;9.756;2023-07-08T11:23:15;40.70;1.00
3208;DHT22;1616;52.394;9.756;2023-07-08T11:25:45;40.80;1.00
3208;DHT22;1616;52.394;9.756;2023-07-08T11:28:16;40.90;1.00
3208;DHT22;1616;52.394;9.756;2023-07-08T11:30:46;41.00;1.00
3208;DHT22;1616;52.394;9.756;2023-07-08T11:33:13;41.10;1.00
3208;DHT22;1616;52.394;9.756;2023-07-08T11:35:49;41.30;1.00
3208;DHT22;1616;52.394;9.756;2023-07-08T11:38:17;41.20;1.00
3208;DHT22;1616;52.394;9.756;2023-07-08T11:43:19;41.30;1.00
3208;DHT22;1616;52.394;9.756;2023-07-08T11:45:45;41.30;1.00
3208;DHT22;1616;52.394;9.756;2023-07-08T11:48:19;41.40;1.00
3208;DHT22;1616;52.394;9.756;2023-07-08T11:50:48;41.60;1.00
3208;DHT22;1616;52.394;9.756;2023-07-08T11:58:33;41.90;1.00
3208;DHT22;1616;52.394;9.756;2023-07-08T12:01:28;41.80;1.00
3208;DHT22;1616;52.394;9.756;2023-07-08T12:09:14;42.00;1.00
3208;DHT22;1616;52.394;9.756;2023-07-08T12:11:44;42.10;1.00
3208;DHT22;1616;52.394;9.756;2023-07-08T12:14:10;42.10;1.00
3208;DHT22;1616;52.394;9.756;2023-07-08T12:16:36;42.10;1.00
3208;DHT22;1616;52.394;9.756;2023-07-08T12:19:04;42.10;1.00
3208;DHT22;1616;52.394;9.756;2023-07-08T12:21:34;42.00;1.00
3208;DHT22;1616;52.394;9.756;2023-07-08T12:24:07;41.90;1.00
3208;DHT22;1616;52.394;9.756;2023-07-08T12:26:36;42.10;1.00
3208;DHT22;1616;52.394;9.756;2023-07-08T12:29:01;41.90;1.00
3208;DHT22;1616;52.394;9.756;2023-07-08T12:31:27;41.50;1.00
3208;DHT22;1616;52.394;9.756;2023-07-08T12:33:52;41.40;1.00
3208;DHT22;1616;52.394;9.756;2023-07-08T12:36:22;41.40;1.00
3208;DHT22;1616;52.394;9.756;2023-07-08T12:38:51;41.40;1.00
3208;DHT22;1616;52.394;9.756;2023-07-08T12:41:21;41.30;1.00
3208;DHT22;1616;52.394;9.756;2023-07-08T12:43:48;41.20;1.00
3208;DHT22;1616;52.394;9.756;2023-07-08T12:46:16;41.10;1.00
3208;DHT22;1616;52.394;9.756;2023-07-08T12:48:42;41.00;1.00
3208;DHT22;1616;52.394;9.756;2023-07-08T12:51:13;40.90;1.00
3208;DHT22;1616;52.394;9.756;2023-07-08T12:53:39;40.90;1.00
3208;DHT22;1616;52.394;9.756;2023-07-08T12:56:05;40.80;1.00
3208;DHT22;1616;52.394;9.756;2023-07-08T12:58:35;40.60;1.00
3208;DHT22;1616;52.394;9.756;2023-07-08T13:01:04;40.50;1.00
3208;DHT22;1616;52.394;9.756;2023-07-08T13:03:34;40.20;1.00
3208;DHT22;1616;52.394;9.756;2023-07-08T13:06:02;40.00;1.00
3208;DHT22;1616;52.394;9.756;2023-07-08T13:08:33;39.90;1.00
3208;DHT22;1616;52.394;9.756;2023-07-08T13:11:02;39.90;1.00
3208;DHT22;1616;52.394;9.756;2023-07-08T13:13:33;39.90;1.00
3208;DHT22;1616;52.394;9.756;2023-07-08T13:15:59;39.70;1.00
3208;DHT22;1616;52.394;9.756;2023-07-08T13:18:35;39.60;1.00
3208;DHT22;1616;52.394;9.756;2023-07-08T13:21:02;39.30;1.00
3208;DHT22;1616;52.394;9.756;2023-07-08T13:23:28;39.10;1.00
3208;DHT22;1616;52.394;9.756;2023-07-08T13:25:54;39.10;1.00
3208;DHT22;1616;52.394;9.756;2023-07-08T13:28:25;39.00;1.00
3208;DHT22;1616;52.394;9.756;2023-07-08T13:30:59;38.80;1.00
3208;DHT22;1616;52.394;9.756;2023-07-08T13:33:33;38.50;1.00
3208;DHT22;1616;52.394;9.756;2023-07-08T13:36:03;38.20;1.00
3208;DHT22;1616;52.394;9.756;2023-07-08T13:38:35;37.90;1.00
3208;DHT22;1616;52.394;9.756;2023-07-08T13:41:03;37.50;1.00
3208;DHT22;1616;52.394;9.756;2023-07-08T13:43:32;37.20;1.00
3208;DHT22;1616;52.394;9.756;2023-07-08T13:45:58;36.90;1.00
3208;DHT22;1616;52.394;9.756;2023-07-08T13:51:14;36.40;1.00
3208;DHT22;1616;52.394;9.756;2023-07-08T13:56:15;35.70;1.00
3208;DHT22;1616;52.394;9.756;2023-07-08T13:58:46;35.40;1.00
3208;DHT22;1616;52.394;9.756;2023-07-08T14:01:32;35.10;1.00
3208;DHT22;1616;52.394;9.756;2023-07-08T14:03:59;34.80;1.00
3208;DHT22;1616;52.394;9.756;2023-07-08T14:06:36;34.70;1.00
3208;DHT22;1616;52.394;9.756;2023-07-08T14:09:15;34.60;1.00
3208;DHT22;1616;52.394;9.756;2023-07-08T14:11:42;34.50;1.00
3208;DHT22;1616;52.394;9.756;2023-07-08T14:14:09;34.40;1.00
3208;DHT22;1616;52.394;9.756;2023-07-08T14:16:37;34.30;1.00
3208;DHT22;1616;52.394;9.756;2023-07-08T14:19:06;34.30;1.00
3208;DHT22;1616;52.394;9.756;2023-07-08T14:21:34;34.30;1.00
3208;DHT22;1616;52.394;9.756;2023-07-08T14:24:00;34.30;1.00
3208;DHT22;1616;52.394;9.756;2023-07-08T14:26:27;34.20;1.00
3208;DHT22;1616;52.394;9.756;2023-07-08T14:28:53;34.10;1.00
3208;DHT22;1616;52.394;9.756;2023-07-08T14:31:21;34.00;1.00
3208;DHT22;1616;52.394;9.756;2023-07-08T14:33:49;33.90;1.00
3208;DHT22;1616;52.394;9.756;2023-07-08T14:36:16;33.90;1.00
3208;DHT22;1616;52.394;9.756;2023-07-08T14:38:41;33.90;1.00
3208;DHT22;1616;52.394;9.756;2023-07-08T14:41:07;34.00;1.00
3208;DHT22;1616;52.394;9.756;2023-07-08T14:43:33;33.90;1.00
3208;DHT22;1616;52.394;9.756;2023-07-08T14:46:02;33.90;1.00
3208;DHT22;1616;52.394;9.756;2023-07-08T14:48:29;33.90;1.00
3208;DHT22;1616;52.394;9.756;2023-07-08T14:50:55;34.00;1.00
3208;DHT22;1616;52.394;9.756;2023-07-08T14:53:20;33.90;1.00
3208;DHT22;1616;52.394;9.756;2023-07-08T14:55:48;34.00;1.00
3208;DHT22;1616;52.394;9.756;2023-07-08T14:58:22;33.90;1.00
3208;DHT22;1616;52.394;9.756;2023-07-08T15:00:50;33.90;1.00
3208;DHT22;1616;52.394;9.756;2023-07-08T15:03:16;33.80;1.00
3208;DHT22;1616;52.394;9.756;2023-07-08T15:05:42;33.70;1.00
3208;DHT22;1616;52.394;9.756;2023-07-08T15:08:07;33.70;1.00
3208;DHT22;1616;52.394;9.756;2023-07-08T15:10:34;33.70;1.00
3208;DHT22;1616;52.394;9.756;2023-07-08T15:13:00;33.60;1.00
3208;DHT22;1616;52.394;9.756;2023-07-08T15:15:32;33.60;1.00
3208;DHT22;1616;52.394;9.756;2023-07-08T15:17:59;33.50;1.00
3208;DHT22;1616;52.394;9.756;2023-07-08T15:20:25;33.60;1.00
3208;DHT22;1616;52.394;9.756;2023-07-08T15:22:51;33.60;1.00
3208;DHT22;1616;52.394;9.756;2023-07-08T15:25:17;33.50;1.00
3208;DHT22;1616;52.394;9.756;2023-07-08T15:27:47;33.50;1.00
3208;DHT22;1616;52.394;9.756;2023-07-08T15:30:25;33.50;1.00
3208;DHT22;1616;52.394;9.756;2023-07-08T15:32:51;33.40;1.00
3208;DHT22;1616;52.394;9.756;2023-07-08T15:35:19;33.40;1.00
3208;DHT22;1616;52.394;9.756;2023-07-08T15:37:46;33.40;1.00
3208;DHT22;1616;52.394;9.756;2023-07-08T15:40:13;33.40;1.00
3208;DHT22;1616;52.394;9.756;2023-07-08T15:42:40;33.40;1.00
3208;DHT22;1616;52.394;9.756;2023-07-08T15:45:21;33.40;1.00
3208;DHT22;1616;52.394;9.756;2023-07-08T15:47:47;33.30;1.00
3208;DHT22;1616;52.394;9.756;2023-07-08T15:50:15;33.30;1.00
3208;DHT22;1616;52.394;9.756;2023-07-08T15:52:41;33.20;1.00
3208;DHT22;1616;52.394;9.756;2023-07-08T15:55:12;33.20;1.00
3208;DHT22;1616;52.394;9.756;2023-07-08T15:57:47;33.10;1.00
3208;DHT22;1616;52.394;9.756;2023-07-08T16:00:20;33.20;1.00
3208;DHT22;1616;52.394;9.756;2023-07-08T16:02:51;33.20;1.00
3208;DHT22;1616;52.394;9.756;2023-07-08T16:05:18;33.10;1.00
3208;DHT22;1616;52.394;9.756;2023-07-08T16:07:45;33.20;1.00
3208;DHT22;1616;52.394;9.756;2023-07-08T16:10:11;33.10;1.00
3208;DHT22;1616;52.394;9.756;2023-07-08T16:12:37;33.10;1.00
3208;DHT22;1616;52.394;9.756;2023-07-08T16:15:03;33.20;1.00
3208;DHT22;1616;52.394;9.756;2023-07-08T16:17:30;33.10;1.00
3208;DHT22;1616;52.394;9.756;2023-07-08T16:19:57;33.10;1.00
3208;DHT22;1616;52.394;9.756;2023-07-08T16:22:23;33.00;1.00
3208;DHT22;1616;52.394;9.756;2023-07-08T16:24:50;33.00;1.00
3208;DHT22;1616;52.394;9.756;2023-07-08T16:27:15;33.00;1.00
3208;DHT22;1616;52.394;9.756;2023-07-08T16:29:41;32.90;1.00
3208;DHT22;1616;52.394;9.756;2023-07-08T16:32:13;32.90;1.00
3208;DHT22;1616;52.394;9.756;2023-07-08T16:34:39;32.90;1.00
3208;DHT22;1616;52.394;9.756;2023-07-08T16:37:05;32.90;1.00
3208;DHT22;1616;52.394;9.756;2023-07-08T16:39:30;32.80;1.00
3208;DHT22;1616;52.394;9.756;2023-07-08T16:41:56;32.80;1.00
3208;DHT22;1616;52.394;9.756;2023-07-08T16:44:22;32.80;1.00
3208;DHT22;1616;52.394;9.756;2023-07-08T16:46:48;32.80;1.00
3208;DHT22;1616;52.394;9.756;2023-07-08T16:49:14;32.70;1.00
3208;DHT22;1616;52.394;9.756;2023-07-08T16:51:41;32.70;1.00
3208;DHT22;1616;52.394;9.756;2023-07-08T16:54:16;32.70;1.00
3208;DHT22;1616;52.394;9.756;2023-07-08T16:56:43;32.50;1.00
3208;DHT22;1616;52.394;9.756;2023-07-08T16:59:11;32.60;1.00
3208;DHT22;1616;52.394;9.756;2023-07-08T17:01:37;32.50;1.00
3208;DHT22;1616;52.394;9.756;2023-07-08T17:04:03;32.60;1.00
3208;DHT22;1616;52.394;9.756;2023-07-08T17:06:28;32.50;1.00
3208;DHT22;1616;52.394;9.756;2023-07-08T17:08:54;32.50;1.00
3208;DHT22;1616;52.394;9.756;2023-07-08T17:11:19;32.50;1.00